createdAt,value
2022-12-27T00:00:33.974Z,7.35
2022-12-27T00:05:36.241Z,7.19
2022-12-27T00:10:39.158Z,7.11
2022-12-27T00:15:41.346Z,7.02
2022-12-27T00:20:43.480Z,6.94
2022-12-27T00:25:45.607Z,7.12
2022-12-27T00:30:55.511Z,7.20
2022-12-27T00:36:01.244Z,7.03
2022-12-27T00:41:04.313Z,7.06
2022-12-27T00:46:06.961Z,7.00
2022-12-27T00:51:15.145Z,7.14
2022-12-27T00:56:20.172Z,7.01
2022-12-27T01:01:24.419Z,7.11
2022-12-27T01:06:29.527Z,7.11
2022-12-27T01:11:33.268Z,7.12
2022-12-27T01:16:35.654Z,7.01
2022-12-27T01:21:37.845Z,6.81
2022-12-27T01:26:40.093Z,6.93
2022-12-27T01:31:42.255Z,6.82
2022-12-27T01:36:45.230Z,6.73
2022-12-27T01:42:05.946Z,6.87
2022-12-27T01:47:20.071Z,6.88
2022-12-27T01:52:24.829Z,6.66
2022-12-27T01:57:27.115Z,6.64
2022-12-27T02:02:29.608Z,6.74
2022-12-27T02:07:42.425Z,6.67
2022-12-27T02:12:44.763Z,6.51
2022-12-27T02:17:47.130Z,6.66
2022-12-27T02:23:26.520Z,6.67
2022-12-27T02:28:46.984Z,6.64
2022-12-27T02:33:52.610Z,6.47
2022-12-27T02:38:59.529Z,6.59
2022-12-27T02:44:20.635Z,6.50
2022-12-27T02:49:51.587Z,6.34
2022-12-27T02:55:09.562Z,5.94
2022-12-27T03:00:35.739Z,6.38
2022-12-27T03:06:30.157Z,6.38
2022-12-27T03:12:16.082Z,6.34
2022-12-27T03:17:31.116Z,6.19
2022-12-27T03:22:54.349Z,6.30
2022-12-27T03:28:23.597Z,6.38
2022-12-27T03:33:29.178Z,6.32
2022-12-27T03:38:36.868Z,6.00
2022-12-27T03:43:40.922Z,5.95
2022-12-27T03:49:04.010Z,5.97
2022-12-27T03:54:11.655Z,6.18
2022-12-27T03:59:13.839Z,6.15
2022-12-27T04:04:16.053Z,6.11
2022-12-27T04:09:36.860Z,6.27
2022-12-27T04:14:57.132Z,6.19
2022-12-27T04:20:17.891Z,6.02
2022-12-27T04:25:38.167Z,5.87
2022-12-27T04:30:58.681Z,5.82
2022-12-27T04:36:06.008Z,5.65
2022-12-27T04:41:26.937Z,5.72
2022-12-27T04:46:47.802Z,5.65
2022-12-27T04:52:08.311Z,5.66
2022-12-27T04:57:10.492Z,5.65
2022-12-27T05:02:12.995Z,5.65
2022-12-27T05:07:35.131Z,5.54
2022-12-27T05:12:55.690Z,5.36
2022-12-27T05:17:58.420Z,5.53
2022-12-27T05:23:19.405Z,5.18
2022-12-27T05:28:21.541Z,5.37
2022-12-27T05:33:23.711Z,5.32
2022-12-27T05:38:25.863Z,5.06
2022-12-27T05:43:28.952Z,5.26
2022-12-27T05:48:31.603Z,5.08
2022-12-27T05:53:33.842Z,5.05
2022-12-27T05:58:36.185Z,4.92
2022-12-27T06:03:39.199Z,5.08
2022-12-27T06:08:41.879Z,5.10
2022-12-27T06:13:49.036Z,4.68
2022-12-27T06:18:51.306Z,4.88
2022-12-27T06:23:53.538Z,4.75
2022-12-27T06:28:57.938Z,4.98
2022-12-27T06:34:00.090Z,4.76
2022-12-27T06:39:02.436Z,4.80
2022-12-27T06:44:04.755Z,4.77
2022-12-27T06:49:07.019Z,4.88
2022-12-27T06:54:09.250Z,4.79
2022-12-27T06:59:11.440Z,5.11
2022-12-27T07:04:13.584Z,5.28
2022-12-27T07:09:15.870Z,5.46
2022-12-27T07:14:18.082Z,5.74
2022-12-27T07:19:20.270Z,5.83
2022-12-27T07:24:22.471Z,6.16
2022-12-27T07:29:24.683Z,6.21
2022-12-27T07:34:26.805Z,6.47
2022-12-27T07:39:29.352Z,6.30
2022-12-27T07:44:31.471Z,6.75
2022-12-27T07:49:33.676Z,6.76
2022-12-27T07:54:36.336Z,6.93
2022-12-27T07:59:38.522Z,6.94
2022-12-27T08:04:40.753Z,7.34
2022-12-27T08:09:45.741Z,7.64
2022-12-27T08:14:47.912Z,7.88
2022-12-27T08:19:52.696Z,8.11
2022-12-27T08:24:56.648Z,8.21
2022-12-27T08:29:58.869Z,8.46
2022-12-27T08:37:16.176Z,8.80
2022-12-27T08:42:18.435Z,8.91
2022-12-27T08:47:20.631Z,8.95
2022-12-27T08:52:22.787Z,8.92
2022-12-27T08:57:24.980Z,9.16
2022-12-27T09:02:27.284Z,9.36
2022-12-27T09:07:30.097Z,9.58
2022-12-27T09:12:33.859Z,9.68
2022-12-27T09:17:36.382Z,9.92
2022-12-27T09:22:40.072Z,10.15
2022-12-27T09:27:42.198Z,10.04
2022-12-27T09:32:44.412Z,10.28
2022-12-27T09:37:46.563Z,10.59
2022-12-27T09:43:19.063Z,10.78
2022-12-27T09:48:35.076Z,10.83
2022-12-27T09:53:51.768Z,10.89
2022-12-27T09:58:57.816Z,11.34
2022-12-27T10:04:01.000Z,11.20
2022-12-27T10:09:30.919Z,11.60
2022-12-27T10:14:59.626Z,11.76
2022-12-27T10:20:31.323Z,11.95
2022-12-27T10:25:36.567Z,11.96
2022-12-27T10:30:41.132Z,12.30
2022-12-27T10:35:43.331Z,12.27
2022-12-27T10:40:59.859Z,12.65
2022-12-27T10:46:32.482Z,12.79
2022-12-27T10:51:37.878Z,12.86
2022-12-27T10:56:42.277Z,12.81
2022-12-27T11:01:46.555Z,12.87
2022-12-27T11:07:05.563Z,12.88
2022-12-27T11:12:25.868Z,12.99
2022-12-27T11:17:54.342Z,13.21
2022-12-27T11:23:06.340Z,12.87
2022-12-27T11:28:29.543Z,13.45
2022-12-27T11:33:39.751Z,13.61
2022-12-27T11:38:45.467Z,13.19
2022-12-27T11:44:01.314Z,13.70
2022-12-27T11:49:09.644Z,13.64
2022-12-27T11:54:21.211Z,13.96
2022-12-27T11:59:26.121Z,14.16
2022-12-27T12:04:46.169Z,14.32
2022-12-27T12:10:11.778Z,14.47
2022-12-27T12:15:32.499Z,14.63
2022-12-27T12:21:13.352Z,14.72
2022-12-27T12:26:22.441Z,14.67
2022-12-27T12:31:42.437Z,14.94
2022-12-27T12:37:14.654Z,14.87
2022-12-27T12:42:29.813Z,14.75
2022-12-27T12:47:50.110Z,15.24
2022-12-27T12:52:52.095Z,15.30
2022-12-27T12:58:06.227Z,15.45
2022-12-27T13:04:06.612Z,15.43
2022-12-27T13:09:17.862Z,15.69
2022-12-27T13:14:22.760Z,15.70
2022-12-27T13:19:59.379Z,15.80
2022-12-27T13:25:29.586Z,15.82
2022-12-27T13:30:49.019Z,15.89
2022-12-27T13:36:13.127Z,16.10
2022-12-27T13:41:30.208Z,16.14
2022-12-27T13:46:43.044Z,15.95
2022-12-27T13:51:50.355Z,16.36
2022-12-27T13:57:23.662Z,16.48
2022-12-27T14:02:37.873Z,16.62
2022-12-27T14:07:51.246Z,16.82
2022-12-27T14:12:53.365Z,17.01
2022-12-27T14:18:24.682Z,17.26
2022-12-27T14:23:54.694Z,17.49
2022-12-27T14:29:34.251Z,17.72
2022-12-27T14:34:40.992Z,17.99
2022-12-27T14:39:51.840Z,17.96
2022-12-27T14:45:35.142Z,17.99
2022-12-27T14:51:08.132Z,17.91
2022-12-27T14:56:24.979Z,17.58
2022-12-27T15:01:59.235Z,16.93
2022-12-27T15:07:42.983Z,16.12
2022-12-27T15:13:26.587Z,15.68
2022-12-27T15:18:56.046Z,15.16
2022-12-27T15:24:09.839Z,14.82
2022-12-27T15:29:24.327Z,14.46
2022-12-27T15:34:26.562Z,14.09
2022-12-27T15:39:35.942Z,13.76
2022-12-27T15:45:02.397Z,13.59
2022-12-27T15:50:20.675Z,13.22
2022-12-27T15:55:40.703Z,13.17
2022-12-27T16:00:44.921Z,12.98
2022-12-27T16:05:53.995Z,12.73
2022-12-27T16:10:57.128Z,12.50
2022-12-27T16:16:00.685Z,12.36
2022-12-27T16:21:22.940Z,12.30
2022-12-27T16:26:31.114Z,12.11
2022-12-27T16:31:41.842Z,12.03
2022-12-27T16:36:49.004Z,11.94
2022-12-27T16:41:57.186Z,12.01
2022-12-27T16:47:11.192Z,11.83
2022-12-27T16:52:13.369Z,11.71
2022-12-27T16:57:24.398Z,11.53
2022-12-27T17:02:40.524Z,11.44
2022-12-27T17:07:51.725Z,11.40
2022-12-27T17:13:14.895Z,11.27
2022-12-27T17:18:31.400Z,11.11
2022-12-27T17:23:41.078Z,11.03
2022-12-27T17:29:06.817Z,10.80
2022-12-27T17:34:11.608Z,10.94
2022-12-27T17:39:25.812Z,10.86
2022-12-27T17:44:52.001Z,10.53
2022-12-27T17:49:58.204Z,10.68
2022-12-27T17:55:36.177Z,10.56
2022-12-27T18:26:39.303Z,9.73
2022-12-27T18:31:55.354Z,9.77
2022-12-27T18:37:05.230Z,9.84
2022-12-27T18:42:31.577Z,9.88
2022-12-27T18:47:40.671Z,9.77
2022-12-27T18:52:46.293Z,9.80
2022-12-27T18:58:20.183Z,9.74
2022-12-27T19:03:23.261Z,9.74
2022-12-27T19:08:29.246Z,9.67
2022-12-27T19:13:37.504Z,9.63
2022-12-27T19:18:39.784Z,9.49
2022-12-27T19:23:51.752Z,9.42
2022-12-27T19:29:08.696Z,9.59
2022-12-27T19:34:17.189Z,9.48
2022-12-27T19:39:26.077Z,9.48
2022-12-27T19:44:28.443Z,9.48
2022-12-27T19:49:45.872Z,9.48
2022-12-27T19:54:50.200Z,9.30
2022-12-27T19:59:52.324Z,9.12
2022-12-27T20:04:54.525Z,8.99
2022-12-27T20:09:56.797Z,9.01
2022-12-27T20:14:59.022Z,8.85
2022-12-27T20:20:01.293Z,8.91
2022-12-27T20:25:03.507Z,8.87
2022-12-27T20:30:06.353Z,8.69
2022-12-27T20:35:10.584Z,8.74
2022-12-27T20:40:12.964Z,8.83
2022-12-27T20:45:25.770Z,8.77
2022-12-27T20:50:27.983Z,8.75
2022-12-27T20:55:31.760Z,8.62
2022-12-27T21:00:33.994Z,8.60
2022-12-27T21:05:37.204Z,8.65
2022-12-27T21:10:39.375Z,8.57
2022-12-27T21:15:46.289Z,8.47
2022-12-27T21:20:48.409Z,8.59
2022-12-27T21:25:50.593Z,8.62
2022-12-27T21:31:02.777Z,8.56
2022-12-27T21:36:08.289Z,8.51
2022-12-27T21:41:31.104Z,8.49
2022-12-27T21:46:38.698Z,8.33
2022-12-27T21:51:42.523Z,8.40
2022-12-27T21:56:44.731Z,8.37
2022-12-27T22:01:52.864Z,8.31
2022-12-27T22:06:55.146Z,8.15
2022-12-27T22:11:58.843Z,8.08
2022-12-27T22:17:02.527Z,8.18
2022-12-27T22:22:04.754Z,8.06
2022-12-27T22:27:06.942Z,8.02
2022-12-27T22:32:09.159Z,8.07
2022-12-27T22:37:11.286Z,8.03
2022-12-27T22:42:13.446Z,7.96
2022-12-27T22:47:26.150Z,7.96
2022-12-27T22:52:29.480Z,7.83
2022-12-27T22:57:31.665Z,7.93
2022-12-27T23:02:35.357Z,8.00
2022-12-27T23:08:06.091Z,7.83
2022-12-27T23:12:59.844Z,7.93
2022-12-27T23:18:02.019Z,7.77
2022-12-27T23:23:04.172Z,7.80
2022-12-27T23:28:06.289Z,7.79
2022-12-27T23:33:12.173Z,7.78
2022-12-27T23:38:14.443Z,7.90
2022-12-27T23:43:50.374Z,7.76
2022-12-27T23:48:39.040Z,7.53
2022-12-27T23:53:42.074Z,7.53
2022-12-27T23:58:50.771Z,7.35
